Avioradar koristi kolačiće da bi Vam omogućio jednostavnije i ugodnije korištenje stranice. 

AVIORADAR - Hrvatski zrakoplovni portal

METAR & TAF

[Source: ADDS]
METAR
LDZA 170530Z 02003KT 340V070 5000 BR OVC002 M04/M05 Q1016 R99/19//95 NOSIG =
LDZA 170525Z 1706/1806 VRB02KT 2000 BCFG OVC003 TX01/1712Z TNM06/1805Z PROB30 TEMPO 1706/1709 0400 FZFG VV002 BECMG 1710/1712 6000 NSW SCT025 PROB30 TEMPO 1718/1806 4500 -SN BKN014 LDSP 170530Z 34006KT 9999 BKN055 01/M09 Q1017 NOSIG =
LDSP 170525Z 1706/1806 34006KT 9999 BKN050 TX04/1712Z TNM02/1805Z BECMG 1709/1711 05008KT PROB30 TEMPO 1711/1718 4900 -RASN TEMPO 1720/1806 05015KT LDDU 170530Z 02010KT 320V070 CAVOK M00/M13 Q1017 NOSIG =
LDDU 170525Z 1706/1806 01012KT CAVOK TX04/1713Z TNM02/1805Z BECMG 1707/1709 09008KT BECMG 1716/1718 02015KT PROB30 TEMPO 1716/1722 4900 -RASN TEMPO 1719/1806 03020G30KT LDPL 170530Z 06004KT 9999 OVC045 02/M02 Q1015 NOSIG =
LDPL 170525Z 1706/1806 06010KT 9999 SCT040 TX05/1712Z TN00/1805Z PROB30 TEMPO 1720/1803 06015G25KT LDZD 170530Z 11006KT 9999 BKN060 M01/M08 Q1016 NOSIG =
LDZD 170525Z 1706/1806 12008KT 9999 BKN050 TX04/1713Z TNM03/1805Z PROB30 TEMPO 1710/1713 4900 -RASN BECMG 1719/1721 05012KT PROB30 TEMPO 1722/1806 05015G25KT LDOS 170530Z 24004KT 3000 -SN BKN013 OVC023 M04/M04 Q1017 R11/////// =
LDOS 170525Z 1706/1806 30005KT 3000 -SN BKN012 OVC025 TX00/1712Z TNM07/1805Z PROB40 TEMPO 1706/1712 1000 SN BKN004 OVC015 BECMG 1714/1716 9999 NSW BKN025
TAF
LDZA 170525Z 1706/1806 VRB02KT 2000 BCFG OVC003 TX01/1712Z TNM06/1805Z PROB30 TEMPO 1706/1709 0400 FZFG VV002 BECMG 1710/1712 6000 NSW SCT025 PROB30 TEMPO 1718/1806 4500 -SN BKN014 =
LDSP 170525Z 1706/1806 34006KT 9999 BKN050 TX04/1712Z TNM02/1805Z BECMG 1709/1711 05008KT PROB30 TEMPO 1711/1718 4900 -RASN TEMPO 1720/1806 05015KT =
LDDU 170525Z 1706/1806 01012KT CAVOK TX04/1713Z TNM02/1805Z BECMG 1707/1709 09008KT BECMG 1716/1718 02015KT PROB30 TEMPO 1716/1722 4900 -RASN TEMPO 1719/1806 03020G30KT =
LDPL 170525Z 1706/1806 06010KT 9999 SCT040 TX05/1712Z TN00/1805Z PROB30 TEMPO 1720/1803 06015G25KT =
LDZD 170525Z 1706/1806 12008KT 9999 BKN050 TX04/1713Z TNM03/1805Z PROB30 TEMPO 1710/1713 4900 -RASN BECMG 1719/1721 05012KT PROB30 TEMPO 1722/1806 05015G25KT =
LDOS 170525Z 1706/1806 30005KT 3000 -SN BKN012 OVC025 TX00/1712Z TNM07/1805Z PROB40 TEMPO 1706/1712 1000 SN BKN004 OVC015 BECMG 1714/1716 9999 NSW BKN025 =
SR / SS: 06:30 / 15:41 UTC (Zagreb 2021-01-17)